sensor_id;sensor_type;location;lat;lon;timestamp;temperature;humidity
10057;DHT22;5068;51.286;7.518;2023-01-08T00:00:40;9.00;63.20
10057;DHT22;5068;51.286;7.518;2023-01-08T00:02:13;8.90;63.00
10057;DHT22;5068;51.286;7.518;2023-01-08T00:03:47;8.90;63.00
10057;DHT22;5068;51.286;7.518;2023-01-08T00:05:20;8.90;63.10
10057;DHT22;5068;51.286;7.518;2023-01-08T00:06:54;8.90;63.00
10057;DHT22;5068;51.286;7.518;2023-01-08T00:08:27;8.90;63.00
10057;DHT22;5068;51.286;7.518;2023-01-08T00:10:02;8.90;63.20
10057;DHT22;5068;51.286;7.518;2023-01-08T00:11:36;8.90;63.40
10057;DHT22;5068;51.286;7.518;2023-01-08T00:13:09;9.00;63.60
10057;DHT22;5068;51.286;7.518;2023-01-08T00:14:41;8.90;63.50
10057;DHT22;5068;51.286;7.518;2023-01-08T00:16:16;8.90;63.70
10057;DHT22;5068;51.286;7.518;2023-01-08T00:17:50;9.00;64.00
10057;DHT22;5068;51.286;7.518;2023-01-08T00:19:24;9.00;64.10
10057;DHT22;5068;51.286;7.518;2023-01-08T00:20:57;9.00;64.10
10057;DHT22;5068;51.286;7.518;2023-01-08T00:22:30;9.00;64.10
10057;DHT22;5068;51.286;7.518;2023-01-08T00:24:04;9.00;64.10
10057;DHT22;5068;51.286;7.518;2023-01-08T00:25:39;9.00;64.30
10057;DHT22;5068;51.286;7.518;2023-01-08T00:27:13;9.00;64.40
10057;DHT22;5068;51.286;7.518;2023-01-08T00:28:46;9.00;64.20
10057;DHT22;5068;51.286;7.518;2023-01-08T00:30:19;9.00;64.20
10057;DHT22;5068;51.286;7.518;2023-01-08T00:31:52;9.00;64.20
10057;DHT22;5068;51.286;7.518;2023-01-08T00:33:26;9.00;64.20
10057;DHT22;5068;51.286;7.518;2023-01-08T00:34:59;9.00;64.30
10057;DHT22;5068;51.286;7.518;2023-01-08T00:36:33;9.00;64.30
10057;DHT22;5068;51.286;7.518;2023-01-08T00:38:06;9.00;64.20
10057;DHT22;5068;51.286;7.518;2023-01-08T00:39:39;9.00;64.20
10057;DHT22;5068;51.286;7.518;2023-01-08T00:41:17;9.00;64.20
10057;DHT22;5068;51.286;7.518;2023-01-08T00:42:50;9.00;64.30
10057;DHT22;5068;51.286;7.518;2023-01-08T00:44:23;9.00;64.20
10057;DHT22;5068;51.286;7.518;2023-01-08T00:45:56;9.00;64.30
10057;DHT22;5068;51.286;7.518;2023-01-08T00:47:30;9.00;64.30
10057;DHT22;5068;51.286;7.518;2023-01-08T00:49:03;9.00;64.40
10057;DHT22;5068;51.286;7.518;2023-01-08T00:50:36;9.00;64.40
10057;DHT22;5068;51.286;7.518;2023-01-08T00:52:11;9.10;64.40
10057;DHT22;5068;51.286;7.518;2023-01-08T00:53:44;9.00;64.20
10057;DHT22;5068;51.286;7.518;2023-01-08T00:55:17;9.00;64.10
10057;DHT22;5068;51.286;7.518;2023-01-08T00:56:54;9.20;64.30
10057;DHT22;5068;51.286;7.518;2023-01-08T00:58:27;9.00;64.20
10057;DHT22;5068;51.286;7.518;2023-01-08T01:00:02;9.00;64.00
10057;DHT22;5068;51.286;7.518;2023-01-08T01:01:36;9.00;63.90
10057;DHT22;5068;51.286;7.518;2023-01-08T01:03:10;9.00;63.90
10057;DHT22;5068;51.286;7.518;2023-01-08T01:04:43;9.00;63.80
10057;DHT22;5068;51.286;7.518;2023-01-08T01:06:16;9.10;63.80
10057;DHT22;5068;51.286;7.518;2023-01-08T01:07:49;9.00;63.70
10057;DHT22;5068;51.286;7.518;2023-01-08T01:09:22;9.00;63.70
10057;DHT22;5068;51.286;7.518;2023-01-08T01:10:56;9.00;63.80
10057;DHT22;5068;51.286;7.518;2023-01-08T01:12:31;9.20;63.90
10057;DHT22;5068;51.286;7.518;2023-01-08T01:14:04;9.10;63.80
10057;DHT22;5068;51.286;7.518;2023-01-08T01:15:37;9.10;63.80
10057;DHT22;5068;51.286;7.518;2023-01-08T01:17:11;9.10;63.70
10057;DHT22;5068;51.286;7.518;2023-01-08T01:18:45;9.10;63.80
10057;DHT22;5068;51.286;7.518;2023-01-08T01:20:18;9.10;63.70
10057;DHT22;5068;51.286;7.518;2023-01-08T01:21:51;9.10;63.60
10057;DHT22;5068;51.286;7.518;2023-01-08T01:23:25;9.10;63.60
10057;DHT22;5068;51.286;7.518;2023-01-08T01:24:58;9.10;63.60
10057;DHT22;5068;51.286;7.518;2023-01-08T01:26:32;9.20;63.60
10057;DHT22;5068;51.286;7.518;2023-01-08T01:28:08;9.10;63.50
10057;DHT22;5068;51.286;7.518;2023-01-08T01:29:40;9.10;63.40
10057;DHT22;5068;51.286;7.518;2023-01-08T01:31:13;9.10;63.40
10057;DHT22;5068;51.286;7.518;2023-01-08T01:32:47;9.10;63.60
10057;DHT22;5068;51.286;7.518;2023-01-08T01:34:20;9.10;63.40
10057;DHT22;5068;51.286;7.518;2023-01-08T01:36:01;9.20;63.40
10057;DHT22;5068;51.286;7.518;2023-01-08T01:37:36;9.10;63.30
10057;DHT22;5068;51.286;7.518;2023-01-08T01:39:10;9.10;63.20
10057;DHT22;5068;51.286;7.518;2023-01-08T01:40:43;9.10;63.20
10057;DHT22;5068;51.286;7.518;2023-01-08T01:42:17;9.10;64.20
10057;DHT22;5068;51.286;7.518;2023-01-08T01:44:39;9.20;63.60
10057;DHT22;5068;51.286;7.518;2023-01-08T01:46:19;9.10;63.40
10057;DHT22;5068;51.286;7.518;2023-01-08T01:48:10;9.10;63.40
10057;DHT22;5068;51.286;7.518;2023-01-08T01:49:50;9.20;64.30
10057;DHT22;5068;51.286;7.518;2023-01-08T01:51:30;9.20;63.40
10057;DHT22;5068;51.286;7.518;2023-01-08T01:53:08;9.10;63.50
10057;DHT22;5068;51.286;7.518;2023-01-08T01:54:44;9.20;63.70
10057;DHT22;5068;51.286;7.518;2023-01-08T01:56:16;9.10;63.50
10057;DHT22;5068;51.286;7.518;2023-01-08T01:57:52;9.10;63.50
10057;DHT22;5068;51.286;7.518;2023-01-08T01:59:30;9.10;63.50
10057;DHT22;5068;51.286;7.518;2023-01-08T02:01:05;9.20;63.60
10057;DHT22;5068;51.286;7.518;2023-01-08T02:02:42;9.10;63.70
10057;DHT22;5068;51.286;7.518;2023-01-08T02:04:16;9.20;64.00
10057;DHT22;5068;51.286;7.518;2023-01-08T02:05:53;9.10;63.80
10057;DHT22;5068;51.286;7.518;2023-01-08T02:07:37;9.20;64.10
10057;DHT22;5068;51.286;7.518;2023-01-08T02:09:20;9.20;64.20
10057;DHT22;5068;51.286;7.518;2023-01-08T02:11:03;9.20;64.30
10057;DHT22;5068;51.286;7.518;2023-01-08T02:12:44;9.20;64.40
10057;DHT22;5068;51.286;7.518;2023-01-08T02:14:29;9.20;64.30
10057;DHT22;5068;51.286;7.518;2023-01-08T02:16:15;9.20;64.40
10057;DHT22;5068;51.286;7.518;2023-01-08T02:17:56;9.20;64.50
10057;DHT22;5068;51.286;7.518;2023-01-08T02:19:39;9.20;64.50
10057;DHT22;5068;51.286;7.518;2023-01-08T02:21:20;9.20;64.60
10057;DHT22;5068;51.286;7.518;2023-01-08T02:23:20;9.10;64.50
10057;DHT22;5068;51.286;7.518;2023-01-08T02:25:04;9.20;64.70
10057;DHT22;5068;51.286;7.518;2023-01-08T02:26:44;9.20;64.70
10057;DHT22;5068;51.286;7.518;2023-01-08T02:28:21;9.20;64.80
10057;DHT22;5068;51.286;7.518;2023-01-08T02:29:56;9.20;64.80
10057;DHT22;5068;51.286;7.518;2023-01-08T02:31:31;9.20;64.70
10057;DHT22;5068;51.286;7.518;2023-01-08T02:33:05;9.20;65.00
10057;DHT22;5068;51.286;7.518;2023-01-08T02:34:38;9.20;64.80
10057;DHT22;5068;51.286;7.518;2023-01-08T02:36:25;9.20;64.90
10057;DHT22;5068;51.286;7.518;2023-01-08T02:38:02;9.20;65.20
10057;DHT22;5068;51.286;7.518;2023-01-08T02:39:44;9.20;65.10
10057;DHT22;5068;51.286;7.518;2023-01-08T02:41:35;9.20;65.30
10057;DHT22;5068;51.286;7.518;2023-01-08T02:43:36;9.20;65.40
10057;DHT22;5068;51.286;7.518;2023-01-08T02:45:25;9.20;65.30
10057;DHT22;5068;51.286;7.518;2023-01-08T02:47:11;9.30;65.50
10057;DHT22;5068;51.286;7.518;2023-01-08T02:48:54;9.20;65.40
10057;DHT22;5068;51.286;7.518;2023-01-08T02:50:38;9.20;65.40
10057;DHT22;5068;51.286;7.518;2023-01-08T02:52:15;9.20;65.40
10057;DHT22;5068;51.286;7.518;2023-01-08T02:53:52;9.20;65.50
10057;DHT22;5068;51.286;7.518;2023-01-08T02:55:27;9.20;65.60
10057;DHT22;5068;51.286;7.518;2023-01-08T02:57:10;9.20;65.70
10057;DHT22;5068;51.286;7.518;2023-01-08T02:58:48;9.20;65.90
10057;DHT22;5068;51.286;7.518;2023-01-08T03:00:25;9.20;65.80
10057;DHT22;5068;51.286;7.518;2023-01-08T03:02:00;9.20;65.90
10057;DHT22;5068;51.286;7.518;2023-01-08T03:03:37;9.10;65.90
10057;DHT22;5068;51.286;7.518;2023-01-08T03:05:19;9.20;66.10
10057;DHT22;5068;51.286;7.518;2023-01-08T03:06:56;9.20;66.10
10057;DHT22;5068;51.286;7.518;2023-01-08T03:08:30;9.10;65.90
10057;DHT22;5068;51.286;7.518;2023-01-08T03:10:07;9.20;66.10
10057;DHT22;5068;51.286;7.518;2023-01-08T03:11:45;9.10;66.00
10057;DHT22;5068;51.286;7.518;2023-01-08T03:13:25;9.10;66.10
10057;DHT22;5068;51.286;7.518;2023-01-08T03:15:06;9.10;66.10
10057;DHT22;5068;51.286;7.518;2023-01-08T03:16:45;9.10;66.20
10057;DHT22;5068;51.286;7.518;2023-01-08T03:18:24;9.10;66.20
10057;DHT22;5068;51.286;7.518;2023-01-08T03:20:05;9.10;66.30
10057;DHT22;5068;51.286;7.518;2023-01-08T03:21:42;9.10;66.30
10057;DHT22;5068;51.286;7.518;2023-01-08T03:23:18;9.10;66.30
10057;DHT22;5068;51.286;7.518;2023-01-08T03:24:54;9.10;66.40
10057;DHT22;5068;51.286;7.518;2023-01-08T03:26:32;9.10;67.20
10057;DHT22;5068;51.286;7.518;2023-01-08T03:28:10;9.10;66.40
10057;DHT22;5068;51.286;7.518;2023-01-08T03:29:49;9.10;66.50
10057;DHT22;5068;51.286;7.518;2023-01-08T03:31:27;9.10;66.50
10057;DHT22;5068;51.286;7.518;2023-01-08T03:33:01;9.10;66.50
10057;DHT22;5068;51.286;7.518;2023-01-08T03:34:39;9.10;66.50
10057;DHT22;5068;51.286;7.518;2023-01-08T03:36:19;9.10;66.50
10057;DHT22;5068;51.286;7.518;2023-01-08T03:37:57;9.10;66.60
10057;DHT22;5068;51.286;7.518;2023-01-08T03:39:39;9.10;66.70
10057;DHT22;5068;51.286;7.518;2023-01-08T03:41:18;9.10;67.60
10057;DHT22;5068;51.286;7.518;2023-01-08T03:42:54;9.10;66.70
10057;DHT22;5068;51.286;7.518;2023-01-08T03:44:28;9.10;66.70
10057;DHT22;5068;51.286;7.518;2023-01-08T03:46:03;9.10;66.90
10057;DHT22;5068;51.286;7.518;2023-01-08T03:47:43;9.10;66.70
10057;DHT22;5068;51.286;7.518;2023-01-08T03:49:16;9.10;66.80
10057;DHT22;5068;51.286;7.518;2023-01-08T03:50:51;9.10;66.70
10057;DHT22;5068;51.286;7.518;2023-01-08T03:52:26;9.10;66.70
10057;DHT22;5068;51.286;7.518;2023-01-08T03:54:01;9.10;66.80
10057;DHT22;5068;51.286;7.518;2023-01-08T03:55:35;9.00;66.80
10057;DHT22;5068;51.286;7.518;2023-01-08T03:57:08;9.00;66.70
10057;DHT22;5068;51.286;7.518;2023-01-08T03:58:41;9.00;66.80
10057;DHT22;5068;51.286;7.518;2023-01-08T04:00:15;9.00;66.90
10057;DHT22;5068;51.286;7.518;2023-01-08T04:01:48;9.00;67.00
10057;DHT22;5068;51.286;7.518;2023-01-08T04:03:23;9.00;67.00
10057;DHT22;5068;51.286;7.518;2023-01-08T04:04:57;9.00;67.00
10057;DHT22;5068;51.286;7.518;2023-01-08T04:06:30;9.00;67.00
10057;DHT22;5068;51.286;7.518;2023-01-08T04:08:04;9.00;67.10
10057;DHT22;5068;51.286;7.518;2023-01-08T04:09:37;9.00;67.00
10057;DHT22;5068;51.286;7.518;2023-01-08T04:11:09;9.00;67.10
10057;DHT22;5068;51.286;7.518;2023-01-08T04:12:42;9.00;67.10
10057;DHT22;5068;51.286;7.518;2023-01-08T04:14:16;9.00;67.20
10057;DHT22;5068;51.286;7.518;2023-01-08T04:15:49;9.00;67.20
10057;DHT22;5068;51.286;7.518;2023-01-08T04:17:24;9.00;67.40
10057;DHT22;5068;51.286;7.518;2023-01-08T04:18:59;9.00;67.30
10057;DHT22;5068;51.286;7.518;2023-01-08T04:20:32;9.00;67.30
10057;DHT22;5068;51.286;7.518;2023-01-08T04:22:05;9.00;67.30
10057;DHT22;5068;51.286;7.518;2023-01-08T04:23:38;9.00;67.40
10057;DHT22;5068;51.286;7.518;2023-01-08T04:25:11;9.00;67.40
10057;DHT22;5068;51.286;7.518;2023-01-08T04:26:44;9.00;67.50
10057;DHT22;5068;51.286;7.518;2023-01-08T04:28:18;9.00;67.50
10057;DHT22;5068;51.286;7.518;2023-01-08T04:29:51;9.00;67.60
10057;DHT22;5068;51.286;7.518;2023-01-08T04:31:24;9.00;67.50
10057;DHT22;5068;51.286;7.518;2023-01-08T04:32:57;9.00;67.50
10057;DHT22;5068;51.286;7.518;2023-01-08T04:34:32;9.00;67.60
10057;DHT22;5068;51.286;7.518;2023-01-08T04:36:05;9.00;67.60
10057;DHT22;5068;51.286;7.518;2023-01-08T04:37:39;9.00;67.70
10057;DHT22;5068;51.286;7.518;2023-01-08T04:39:12;9.00;67.70
10057;DHT22;5068;51.286;7.518;2023-01-08T04:40:45;9.00;67.60
10057;DHT22;5068;51.286;7.518;2023-01-08T04:42:19;9.00;67.70
10057;DHT22;5068;51.286;7.518;2023-01-08T04:43:52;9.00;67.70
10057;DHT22;5068;51.286;7.518;2023-01-08T04:45:24;9.00;67.80
10057;DHT22;5068;51.286;7.518;2023-01-08T04:46:57;9.00;67.80
10057;DHT22;5068;51.286;7.518;2023-01-08T04:48:31;9.00;67.80
10057;DHT22;5068;51.286;7.518;2023-01-08T04:50:07;9.00;67.80
10057;DHT22;5068;51.286;7.518;2023-01-08T04:51:41;9.00;67.90
10057;DHT22;5068;51.286;7.518;2023-01-08T04:53:14;8.90;67.70
10057;DHT22;5068;51.286;7.518;2023-01-08T04:54:47;9.00;67.80
10057;DHT22;5068;51.286;7.518;2023-01-08T04:56:21;8.90;67.70
10057;DHT22;5068;51.286;7.518;2023-01-08T04:57:54;9.00;67.80
10057;DHT22;5068;51.286;7.518;2023-01-08T04:59:27;9.00;67.80
10057;DHT22;5068;51.286;7.518;2023-01-08T05:01:07;9.00;67.80
10057;DHT22;5068;51.286;7.518;2023-01-08T05:02:42;9.00;67.80
10057;DHT22;5068;51.286;7.518;2023-01-08T05:04:15;9.00;67.80
10057;DHT22;5068;51.286;7.518;2023-01-08T05:05:50;9.00;67.80
10057;DHT22;5068;51.286;7.518;2023-01-08T05:07:23;9.00;67.80
10057;DHT22;5068;51.286;7.518;2023-01-08T05:08:57;9.00;67.70
10057;DHT22;5068;51.286;7.518;2023-01-08T05:10:30;9.00;67.80
10057;DHT22;5068;51.286;7.518;2023-01-08T05:12:04;9.00;67.80
10057;DHT22;5068;51.286;7.518;2023-01-08T05:13:37;9.00;67.80
10057;DHT22;5068;51.286;7.518;2023-01-08T05:15:10;9.00;67.80
10057;DHT22;5068;51.286;7.518;2023-01-08T05:16:43;9.00;67.80
10057;DHT22;5068;51.286;7.518;2023-01-08T05:18:16;9.00;67.80
10057;DHT22;5068;51.286;7.518;2023-01-08T05:19:49;9.00;67.90
10057;DHT22;5068;51.286;7.518;2023-01-08T05:21:24;9.00;67.90
10057;DHT22;5068;51.286;7.518;2023-01-08T05:22:57;9.00;68.00
10057;DHT22;5068;51.286;7.518;2023-01-08T05:24:30;9.00;68.00
10057;DHT22;5068;51.286;7.518;2023-01-08T05:26:05;9.00;68.00
10057;DHT22;5068;51.286;7.518;2023-01-08T05:27:39;9.00;68.10
10057;DHT22;5068;51.286;7.518;2023-01-08T05:29:12;9.00;68.00
10057;DHT22;5068;51.286;7.518;2023-01-08T05:30:45;9.00;68.00
10057;DHT22;5068;51.286;7.518;2023-01-08T05:32:18;9.00;68.00
10057;DHT22;5068;51.286;7.518;2023-01-08T05:33:52;9.00;68.10
10057;DHT22;5068;51.286;7.518;2023-01-08T05:35:25;9.00;68.00
10057;DHT22;5068;51.286;7.518;2023-01-08T05:37:00;9.00;67.90
10057;DHT22;5068;51.286;7.518;2023-01-08T05:38:32;9.00;68.00
10057;DHT22;5068;51.286;7.518;2023-01-08T05:40:06;9.00;68.00
10057;DHT22;5068;51.286;7.518;2023-01-08T05:41:40;9.00;68.00
10057;DHT22;5068;51.286;7.518;2023-01-08T05:43:13;9.00;68.00
10057;DHT22;5068;51.286;7.518;2023-01-08T05:44:46;9.00;67.90
10057;DHT22;5068;51.286;7.518;2023-01-08T05:46:19;9.00;67.90
10057;DHT22;5068;51.286;7.518;2023-01-08T05:47:52;9.00;68.00
10057;DHT22;5068;51.286;7.518;2023-01-08T05:49:26;9.00;67.90
10057;DHT22;5068;51.286;7.518;2023-01-08T05:50:59;9.00;67.90
10057;DHT22;5068;51.286;7.518;2023-01-08T05:52:34;9.00;67.80
10057;DHT22;5068;51.286;7.518;2023-01-08T05:54:07;9.00;67.80
10057;DHT22;5068;51.286;7.518;2023-01-08T05:55:40;9.00;67.80
10057;DHT22;5068;51.286;7.518;2023-01-08T05:57:12;9.00;67.80
10057;DHT22;5068;51.286;7.518;2023-01-08T05:58:45;9.00;67.80
10057;DHT22;5068;51.286;7.518;2023-01-08T06:00:19;9.00;67.80
10057;DHT22;5068;51.286;7.518;2023-01-08T06:01:52;9.00;67.90
10057;DHT22;5068;51.286;7.518;2023-01-08T06:03:25;9.00;67.80
10057;DHT22;5068;51.286;7.518;2023-01-08T06:04:58;9.00;67.80
10057;DHT22;5068;51.286;7.518;2023-01-08T06:06:31;9.00;67.80
10057;DHT22;5068;51.286;7.518;2023-01-08T06:08:06;8.90;67.50
10057;DHT22;5068;51.286;7.518;2023-01-08T06:09:40;9.00;67.80
10057;DHT22;5068;51.286;7.518;2023-01-08T06:11:13;9.00;67.80
10057;DHT22;5068;51.286;7.518;2023-01-08T06:12:46;9.00;67.80
10057;DHT22;5068;51.286;7.518;2023-01-08T06:14:19;8.90;67.70
10057;DHT22;5068;51.286;7.518;2023-01-08T06:15:52;9.00;67.80
10057;DHT22;5068;51.286;7.518;2023-01-08T06:17:25;9.00;67.70
10057;DHT22;5068;51.286;7.518;2023-01-08T06:18:58;8.90;67.50
10057;DHT22;5068;51.286;7.518;2023-01-08T06:20:31;9.00;67.80
10057;DHT22;5068;51.286;7.518;2023-01-08T06:22:05;8.90;67.70
10057;DHT22;5068;51.286;7.518;2023-01-08T06:23:39;9.00;67.80
10057;DHT22;5068;51.286;7.518;2023-01-08T06:25:12;9.00;67.80
10057;DHT22;5068;51.286;7.518;2023-01-08T06:26:46;9.00;67.70
10057;DHT22;5068;51.286;7.518;2023-01-08T06:28:19;8.90;67.60
10057;DHT22;5068;51.286;7.518;2023-01-08T06:29:53;9.00;67.70
10057;DHT22;5068;51.286;7.518;2023-01-08T06:31:27;9.00;67.60
10057;DHT22;5068;51.286;7.518;2023-01-08T06:33:00;8.90;67.40
10057;DHT22;5068;51.286;7.518;2023-01-08T06:34:34;8.90;67.40
10057;DHT22;5068;51.286;7.518;2023-01-08T06:36:08;8.90;67.30
10057;DHT22;5068;51.286;7.518;2023-01-08T06:37:41;8.90;67.20
10057;DHT22;5068;51.286;7.518;2023-01-08T06:39:16;8.90;67.10
10057;DHT22;5068;51.286;7.518;2023-01-08T06:40:49;8.90;67.00
10057;DHT22;5068;51.286;7.518;2023-01-08T06:42:22;8.90;66.90
10057;DHT22;5068;51.286;7.518;2023-01-08T06:43:56;8.90;66.90
10057;DHT22;5068;51.286;7.518;2023-01-08T06:45:30;8.90;66.90
10057;DHT22;5068;51.286;7.518;2023-01-08T06:47:03;8.90;66.90
10057;DHT22;5068;51.286;7.518;2023-01-08T06:48:37;8.90;66.80
10057;DHT22;5068;51.286;7.518;2023-01-08T06:50:10;8.90;66.80
10057;DHT22;5068;51.286;7.518;2023-01-08T06:51:43;8.90;66.90
10057;DHT22;5068;51.286;7.518;2023-01-08T06:53:17;8.90;66.90
10057;DHT22;5068;51.286;7.518;2023-01-08T06:54:51;8.80;66.70
10057;DHT22;5068;51.286;7.518;2023-01-08T06:56:24;8.80;66.80
10057;DHT22;5068;51.286;7.518;2023-01-08T06:57:58;8.80;66.80
10057;DHT22;5068;51.286;7.518;2023-01-08T06:59:31;8.80;66.70
10057;DHT22;5068;51.286;7.518;2023-01-08T07:01:04;8.80;67.60
10057;DHT22;5068;51.286;7.518;2023-01-08T07:02:38;8.80;66.80
10057;DHT22;5068;51.286;7.518;2023-01-08T07:04:11;8.80;66.70
10057;DHT22;5068;51.286;7.518;2023-01-08T07:05:44;8.80;66.70
10057;DHT22;5068;51.286;7.518;2023-01-08T07:07:18;8.80;66.70
10057;DHT22;5068;51.286;7.518;2023-01-08T07:08:51;8.80;66.80
10057;DHT22;5068;51.286;7.518;2023-01-08T07:10:26;8.70;66.70
10057;DHT22;5068;51.286;7.518;2023-01-08T07:11:59;8.70;66.70
10057;DHT22;5068;51.286;7.518;2023-01-08T07:13:32;8.70;66.60
10057;DHT22;5068;51.286;7.518;2023-01-08T07:15:07;8.70;66.70
10057;DHT22;5068;51.286;7.518;2023-01-08T07:16:41;8.70;66.80
10057;DHT22;5068;51.286;7.518;2023-01-08T07:18:14;8.70;66.60
10057;DHT22;5068;51.286;7.518;2023-01-08T07:19:47;8.70;66.70
10057;DHT22;5068;51.286;7.518;2023-01-08T07:21:20;8.70;66.70
10057;DHT22;5068;51.286;7.518;2023-01-08T07:22:54;8.70;66.60
10057;DHT22;5068;51.286;7.518;2023-01-08T07:24:27;8.70;66.60
10057;DHT22;5068;51.286;7.518;2023-01-08T07:26:02;8.70;66.60
10057;DHT22;5068;51.286;7.518;2023-01-08T07:27:37;8.70;66.60
10057;DHT22;5068;51.286;7.518;2023-01-08T07:29:10;8.60;66.50
10057;DHT22;5068;51.286;7.518;2023-01-08T07:30:44;8.60;66.50
10057;DHT22;5068;51.286;7.518;2023-01-08T07:32:17;8.60;66.50
10057;DHT22;5068;51.286;7.518;2023-01-08T07:33:50;8.60;66.60
10057;DHT22;5068;51.286;7.518;2023-01-08T07:35:23;8.60;66.70
10057;DHT22;5068;51.286;7.518;2023-01-08T07:36:57;8.60;66.80
10057;DHT22;5068;51.286;7.518;2023-01-08T07:38:30;8.60;66.90
10057;DHT22;5068;51.286;7.518;2023-01-08T07:40:05;8.60;66.90
10057;DHT22;5068;51.286;7.518;2023-01-08T07:41:42;8.60;67.10
10057;DHT22;5068;51.286;7.518;2023-01-08T07:43:16;8.60;67.20
10057;DHT22;5068;51.286;7.518;2023-01-08T07:44:49;8.60;67.30
10057;DHT22;5068;51.286;7.518;2023-01-08T07:46:23;8.60;68.10
10057;DHT22;5068;51.286;7.518;2023-01-08T07:47:56;8.60;67.20
10057;DHT22;5068;51.286;7.518;2023-01-08T07:49:30;8.60;67.40
10057;DHT22;5068;51.286;7.518;2023-01-08T07:51:04;8.50;67.20
10057;DHT22;5068;51.286;7.518;2023-01-08T07:52:38;8.60;67.50
10057;DHT22;5068;51.286;7.518;2023-01-08T07:54:12;8.50;67.30
10057;DHT22;5068;51.286;7.518;2023-01-08T07:55:45;8.50;67.30
10057;DHT22;5068;51.286;7.518;2023-01-08T07:57:20;8.50;67.30
10057;DHT22;5068;51.286;7.518;2023-01-08T07:58:53;8.50;67.10
10057;DHT22;5068;51.286;7.518;2023-01-08T08:00:27;8.50;66.90
10057;DHT22;5068;51.286;7.518;2023-01-08T08:01:59;8.50;66.80
10057;DHT22;5068;51.286;7.518;2023-01-08T08:03:33;8.50;66.60
10057;DHT22;5068;51.286;7.518;2023-01-08T08:05:06;8.50;66.50
10057;DHT22;5068;51.286;7.518;2023-01-08T08:06:39;8.50;66.50
10057;DHT22;5068;51.286;7.518;2023-01-08T08:08:13;8.50;66.20
10057;DHT22;5068;51.286;7.518;2023-01-08T08:09:47;8.40;65.60
10057;DHT22;5068;51.286;7.518;2023-01-08T08:11:20;8.50;65.30
10057;DHT22;5068;51.286;7.518;2023-01-08T08:12:54;8.40;65.00
10057;DHT22;5068;51.286;7.518;2023-01-08T08:14:27;8.40;64.80
10057;DHT22;5068;51.286;7.518;2023-01-08T08:16:01;8.40;64.80
10057;DHT22;5068;51.286;7.518;2023-01-08T08:17:35;8.40;64.90
10057;DHT22;5068;51.286;7.518;2023-01-08T08:19:09;8.40;64.80
10057;DHT22;5068;51.286;7.518;2023-01-08T08:20:43;8.40;64.70
10057;DHT22;5068;51.286;7.518;2023-01-08T08:22:16;8.40;64.90
10057;DHT22;5068;51.286;7.518;2023-01-08T08:23:49;8.40;64.80
10057;DHT22;5068;51.286;7.518;2023-01-08T08:25:23;8.40;64.40
10057;DHT22;5068;51.286;7.518;2023-01-08T08:26:56;8.40;64.20
10057;DHT22;5068;51.286;7.518;2023-01-08T08:28:31;8.40;64.00
10057;DHT22;5068;51.286;7.518;2023-01-08T08:30:05;8.40;63.90
10057;DHT22;5068;51.286;7.518;2023-01-08T08:31:39;8.40;63.90
10057;DHT22;5068;51.286;7.518;2023-01-08T08:33:13;8.30;63.80
10057;DHT22;5068;51.286;7.518;2023-01-08T08:34:47;8.30;63.80
10057;DHT22;5068;51.286;7.518;2023-01-08T08:36:26;8.30;63.80
10057;DHT22;5068;51.286;7.518;2023-01-08T08:38:01;8.30;63.90
10057;DHT22;5068;51.286;7.518;2023-01-08T08:39:35;8.30;64.00
10057;DHT22;5068;51.286;7.518;2023-01-08T08:41:09;8.20;64.00
10057;DHT22;5068;51.286;7.518;2023-01-08T08:42:42;8.20;64.20
10057;DHT22;5068;51.286;7.518;2023-01-08T08:44:17;8.20;64.20
10057;DHT22;5068;51.286;7.518;2023-01-08T08:45:50;8.20;64.20
10057;DHT22;5068;51.286;7.518;2023-01-08T08:47:23;8.20;64.20
10057;DHT22;5068;51.286;7.518;2023-01-08T08:48:57;8.20;64.20
10057;DHT22;5068;51.286;7.518;2023-01-08T08:50:30;8.20;64.10
10057;DHT22;5068;51.286;7.518;2023-01-08T08:52:03;8.10;64.20
10057;DHT22;5068;51.286;7.518;2023-01-08T08:53:37;8.10;64.60
10057;DHT22;5068;51.286;7.518;2023-01-08T08:55:11;8.10;64.60
10057;DHT22;5068;51.286;7.518;2023-01-08T08:56:47;8.10;64.70
10057;DHT22;5068;51.286;7.518;2023-01-08T08:58:21;8.10;64.60
10057;DHT22;5068;51.286;7.518;2023-01-08T08:59:56;8.10;64.70
10057;DHT22;5068;51.286;7.518;2023-01-08T09:01:32;8.10;64.60
10057;DHT22;5068;51.286;7.518;2023-01-08T09:03:06;8.00;64.60
10057;DHT22;5068;51.286;7.518;2023-01-08T09:04:42;8.10;64.70
10057;DHT22;5068;51.286;7.518;2023-01-08T09:06:18;8.00;64.50
10057;DHT22;5068;51.286;7.518;2023-01-08T09:07:52;8.00;64.40
10057;DHT22;5068;51.286;7.518;2023-01-08T09:09:26;8.00;64.40
10057;DHT22;5068;51.286;7.518;2023-01-08T09:11:01;8.00;64.40
10057;DHT22;5068;51.286;7.518;2023-01-08T09:12:34;8.00;64.40
10057;DHT22;5068;51.286;7.518;2023-01-08T09:14:08;8.00;64.30
10057;DHT22;5068;51.286;7.518;2023-01-08T09:15:43;8.00;64.40
10057;DHT22;5068;51.286;7.518;2023-01-08T09:17:16;7.90;64.30
10057;DHT22;5068;51.286;7.518;2023-01-08T09:18:52;7.90;64.50
10057;DHT22;5068;51.286;7.518;2023-01-08T09:20:25;7.90;64.60
10057;DHT22;5068;51.286;7.518;2023-01-08T09:22:00;7.90;64.70
10057;DHT22;5068;51.286;7.518;2023-01-08T09:23:34;7.90;64.80
10057;DHT22;5068;51.286;7.518;2023-01-08T09:25:09;7.90;64.80
10057;DHT22;5068;51.286;7.518;2023-01-08T09:26:42;7.90;65.00
10057;DHT22;5068;51.286;7.518;2023-01-08T09:28:16;7.90;65.10
10057;DHT22;5068;51.286;7.518;2023-01-08T09:29:49;7.80;65.20
10057;DHT22;5068;51.286;7.518;2023-01-08T09:31:24;7.90;65.40
10057;DHT22;5068;51.286;7.518;2023-01-08T09:32:58;7.80;65.60
10057;DHT22;5068;51.286;7.518;2023-01-08T09:34:33;7.80;65.70
10057;DHT22;5068;51.286;7.518;2023-01-08T09:36:09;7.80;65.90
10057;DHT22;5068;51.286;7.518;2023-01-08T09:37:43;7.80;66.20
10057;DHT22;5068;51.286;7.518;2023-01-08T09:39:16;7.90;66.60
10057;DHT22;5068;51.286;7.518;2023-01-08T09:40:53;7.90;66.50
10057;DHT22;5068;51.286;7.518;2023-01-08T09:42:30;7.90;66.80
10057;DHT22;5068;51.286;7.518;2023-01-08T09:44:05;7.90;66.90
10057;DHT22;5068;51.286;7.518;2023-01-08T09:45:39;7.90;66.70
10057;DHT22;5068;51.286;7.518;2023-01-08T09:47:21;7.90;66.50
10057;DHT22;5068;51.286;7.518;2023-01-08T09:49:00;8.00;66.50
10057;DHT22;5068;51.286;7.518;2023-01-08T09:50:37;8.00;66.80
10057;DHT22;5068;51.286;7.518;2023-01-08T09:52:11;8.00;66.10
10057;DHT22;5068;51.286;7.518;2023-01-08T09:53:49;8.00;66.10
10057;DHT22;5068;51.286;7.518;2023-01-08T09:55:27;8.00;66.20
10057;DHT22;5068;51.286;7.518;2023-01-08T09:57:01;8.00;66.30
10057;DHT22;5068;51.286;7.518;2023-01-08T09:58:37;8.10;66.20
10057;DHT22;5068;51.286;7.518;2023-01-08T10:00:14;8.00;66.10
10057;DHT22;5068;51.286;7.518;2023-01-08T10:01:50;8.10;66.20
10057;DHT22;5068;51.286;7.518;2023-01-08T10:03:30;8.10;66.20
10057;DHT22;5068;51.286;7.518;2023-01-08T10:05:12;8.10;66.30
10057;DHT22;5068;51.286;7.518;2023-01-08T10:06:51;8.10;66.40
10057;DHT22;5068;51.286;7.518;2023-01-08T10:08:27;8.10;66.50
10057;DHT22;5068;51.286;7.518;2023-01-08T10:10:01;8.10;66.40
10057;DHT22;5068;51.286;7.518;2023-01-08T10:11:38;8.10;66.30
10057;DHT22;5068;51.286;7.518;2023-01-08T10:13:14;8.10;66.70
10057;DHT22;5068;51.286;7.518;2023-01-08T10:14:48;8.10;66.70
10057;DHT22;5068;51.286;7.518;2023-01-08T10:16:28;8.10;66.80
10057;DHT22;5068;51.286;7.518;2023-01-08T10:18:05;8.10;66.90
10057;DHT22;5068;51.286;7.518;2023-01-08T10:19:43;8.10;66.90
10057;DHT22;5068;51.286;7.518;2023-01-08T10:21:17;8.10;66.90